Cosco China — DCSL2 — position and weather

sailwx.info

Track history (hours):
 
Tides and Currents Weather Stations Pressure Air Temp Water Temp Dewpoint Dewpoint Depression Visibility Wind Speed Wind Dir Waves Ship Positions

Cosco China

Last reported at 2015-Feb-11 01:33 UTC. Time now 2015-Jul-04 15:19 UTC.
Position N 22°20' E 114°08'.
Warning: this ship's position is months out of date.

Length 334 m; draft 10.5 m.

Type: Cargo ship. MMSI: 218536000.

Date/timePositionNaut miles runAvg speedWind from/ knotsBaromVisibWave heightAir tempDewpointWater temp
2015-Feb-11 01:33N 22°20' E 114°08'0 0.0
2015-Feb-11 00:33N 22°20' E 114°08'0 0.0
2015-Feb-10 23:33N 22°20' E 114°08'0 0.0
2015-Feb-10 22:25N 22°20' E 114°08'0 0.0
2015-Feb-10 21:33N 22°20' E 114°08'0 0.0
2015-Feb-10 20:33N 22°20' E 114°08'0 0.0
2015-Feb-10 19:33N 22°20' E 114°08'18 5.9
2015-Feb-10 16:29N 22°09' E 114°24'1213.1
2015-Feb-10 15:33N 21°57' E 114°27'  
2015-Feb-07 07:33N 01°16' E 104°13'1817.6
2015-Feb-07 06:33N 01°13' E 103°55'9 9.5
2015-Feb-07 05:33N 01°15' E 103°46'2 0.2
2015-Feb-06 20:23N 01°17' E 103°46'0 0.0
2015-Feb-06 19:23N 01°17' E 103°46'0 0.0
2015-Feb-06 17:20N 01°17' E 103°46'0 0.0
2015-Feb-06 16:23N 01°17' E 103°46'0 0.0
2015-Feb-06 15:05N 01°17' E 103°46'0 0.0
2015-Feb-06 14:29N 01°17' E 103°46'0 0.0
2015-Feb-06 13:29N 01°17' E 103°46'0 0.2
2015-Feb-06 12:33N 01°17' E 103°46'2 2.4
2015-Feb-06 11:33N 01°15' E 103°45'5711.2
2015-Feb-06 06:27N 01°36' E 102°52'1312.7
2015-Feb-06 05:27N 01°42' E 102°40'1213.0
2015-Feb-06 04:32N 01°47' E 102°30'1513.5
2015-Feb-06 03:25N 01°54' E 102°16'  
Track history (hours):
 
Tides and Currents Weather Stations Pressure Air Temp Water Temp Dewpoint Dewpoint Depression Visibility Wind Speed Wind Dir Waves Ship Positions

Cosco China

Last reported at 2015-Feb-11 01:33 UTC. Time now 2015-Jul-04 15:19 UTC.
Position N 22°20' E 114°08'.
Warning: this ship's position is months out of date.

Length 334 m; draft 10.5 m.

Type: Cargo ship. MMSI: 218536000.

Date/timePositionNaut miles runAvg speedWind from/ knotsBaromVisibWave heightAir tempDewpointWater temp
2015-Feb-11 01:33N 22°20' E 114°08'0 0.0
2015-Feb-11 00:33N 22°20' E 114°08'0 0.0
2015-Feb-10 23:33N 22°20' E 114°08'0 0.0
2015-Feb-10 22:25N 22°20' E 114°08'0 0.0
2015-Feb-10 21:33N 22°20' E 114°08'0 0.0
2015-Feb-10 20:33N 22°20' E 114°08'0 0.0
2015-Feb-10 19:33N 22°20' E 114°08'18 5.9
2015-Feb-10 16:29N 22°09' E 114°24'1213.1
2015-Feb-10 15:33N 21°57' E 114°27'  
2015-Feb-07 07:33N 01°16' E 104°13'1817.6
2015-Feb-07 06:33N 01°13' E 103°55'9 9.5
2015-Feb-07 05:33N 01°15' E 103°46'2 0.2
2015-Feb-06 20:23N 01°17' E 103°46'0 0.0
2015-Feb-06 19:23N 01°17' E 103°46'0 0.0
2015-Feb-06 17:20N 01°17' E 103°46'0 0.0
2015-Feb-06 16:23N 01°17' E 103°46'0 0.0
2015-Feb-06 15:05N 01°17' E 103°46'0 0.0
2015-Feb-06 14:29N 01°17' E 103°46'0 0.0
2015-Feb-06 13:29N 01°17' E 103°46'0 0.2
2015-Feb-06 12:33N 01°17' E 103°46'2 2.4
2015-Feb-06 11:33N 01°15' E 103°45'5711.2
2015-Feb-06 06:27N 01°36' E 102°52'1312.7
2015-Feb-06 05:27N 01°42' E 102°40'1213.0
2015-Feb-06 04:32N 01°47' E 102°30'1513.5
2015-Feb-06 03:25N 01°54' E 102°16'  

Dump ship's entire track history